Flight Track Log - Related Links

Times and Time Zones

All times are in EDT time to prevent confusion due to time zone crossing. See the CCA1754 flight status page for this flight to view local times or setup timezone preferences in your user account.

Time Position Orientation Groundspeed Altitude Reporting Facility
EDT Latitude Longitude Course Direction KTS MPH feet Rate Location/Type
Sun 08:59:00 AM 25.2716 103.3896 68° East  Level Estimated
Sun 09:00:00 AM 25.3138 103.5049 68° East  Level Estimated
Sun 09:01:00 AM 25.3559 103.6203 68° East  Level Estimated
Sun 09:02:00 AM 25.3979 103.7358 68° East  Level Estimated
Sun 09:03:00 AM 25.4398 103.8513 68° East  Level Estimated
Sun 09:04:00 AM 25.4816 103.9670 68° East  Level Estimated
Sun 09:05:00 AM 25.5234 104.0827 68° East  Level Estimated
Sun 09:06:00 AM 25.5650 104.1985 68° East  Level Estimated
Sun 09:07:00 AM 25.6066 104.3143 68° East  Level Estimated
Sun 09:08:00 AM 25.6481 104.4303 68° East  Level Estimated
Sun 09:09:00 AM 25.6894 104.5463 68° East  Level Estimated
Sun 09:10:00 AM 25.7307 104.6624 68° East  Level Estimated
Sun 09:11:00 AM 25.7719 104.7786 68° East  Level Estimated
Sun 09:12:00 AM 25.8130 104.8949 69° East  Level Estimated
Sun 09:13:00 AM 25.8540 105.0113 69° East  Level Estimated
Sun 09:14:00 AM 25.8949 105.1277 69° East  Level Estimated
Sun 09:15:00 AM 25.9357 105.2442 69° East  Level Estimated
Sun 09:16:00 AM 25.9765 105.3608 69° East  Level Estimated
Sun 09:17:00 AM 26.0171 105.4775 69° East  Level Estimated
Sun 09:18:00 AM 26.0576 105.5943 69° East  Level Estimated
Sun 09:19:00 AM 26.0981 105.7111 69° East  Level Estimated
Sun 09:20:00 AM 26.1385 105.8280 69° East  Level Estimated
Sun 09:21:00 AM 26.1787 105.9450 69° East  Level Estimated
Sun 09:22:00 AM 26.2189 106.0621 69° East  Level Estimated
Sun 09:23:00 AM 26.2589 106.1793 69° East  Level Estimated
Sun 09:24:00 AM 26.2989 106.2965 69° East  Level Estimated
Sun 09:25:00 AM 26.3388 106.4139 69° East  Level Estimated
Sun 09:26:00 AM 26.3786 106.5313 69° East  Level Estimated
Sun 09:27:00 AM 26.4182 106.6488 69° East  Level Estimated
Sun 09:28:00 AM 26.4578 106.7663 69° East  Level Estimated
Sun 09:29:00 AM 26.4973 106.8840 69° East  Level Estimated
Sun 09:30:00 AM 26.5367 107.0017 69° East  Level Estimated
Sun 09:31:00 AM 26.5760 107.1195 70° East  Level Estimated
Sun 09:32:00 AM 26.6152 107.2374 70° East  Level Estimated
Sun 09:33:00 AM 26.6543 107.3554 70° East  Level Estimated
Sun 09:34:00 AM 26.6933 107.4734 70° East  Level Estimated
Sun 09:35:00 AM 26.7323 107.5916 70° East  Level Estimated
Sun 09:36:00 AM 26.7711 107.7098 70° East  Level Estimated
Sun 09:37:00 AM 26.8098 107.8281 70° East  Level Estimated
Sun 09:38:00 AM 26.8484 107.9464 70° East  Level Estimated
Sun 09:39:00 AM 26.8869 108.0649 70° East  Level Estimated
Sun 09:40:00 AM 26.9253 108.1834 70° East  Level Estimated
Sun 09:41:00 AM 26.9637 108.3021 70° East  Level Estimated
Sun 09:42:00 AM 27.0019 108.4208 70° East  Level Estimated
Sun 09:43:00 AM 27.0400 108.5396 70° East  Level Estimated
Sun 09:44:00 AM 27.0780 108.6584 70° East  Level Estimated
Sun 09:45:00 AM 27.1159 108.7774 70° East  Level Estimated
Sun 09:46:00 AM 27.1538 108.8964 70° East  Level Estimated
Sun 09:47:00 AM 27.1915 109.0155 70° East  Level Estimated
Sun 09:48:00 AM 27.2291 109.1347 70° East  Level Estimated
Sun 09:49:00 AM 27.2666 109.2539 70° East  Level Estimated
Sun 09:50:00 AM 27.3040 109.3733 71° East  Level Estimated
Sun 09:51:00 AM 27.3414 109.4927 71° East  Level Estimated
Sun 09:52:00 AM 27.3786 109.6122 71° East  Level Estimated
Sun 09:53:00 AM 27.4157 109.7318 71° East  Level Estimated
Sun 09:54:00 AM 27.4527 109.8514 71° East  Level Estimated
Sun 09:55:00 AM 27.4896 109.9712 71° East  Level Estimated
Sun 09:56:00 AM 27.5264 110.0910 71° East  Level Estimated
Sun 09:57:00 AM 27.5631 110.2109 71° East  Level Estimated
Sun 09:58:00 AM 27.5997 110.3309 71° East  Level Estimated
Sun 09:59:00 AM 27.6362 110.4509 71° East  Level Estimated
Sun 10:00:00 AM 27.6726 110.5711 71° East  Level Estimated
Sun 10:01:00 AM 27.7089 110.6913 71° East  Level Estimated
Sun 10:02:00 AM 27.7451 110.8116 71° East  Level Estimated
Sun 10:03:00 AM 27.7811 110.9320 71° East  Level Estimated
Sun 10:04:00 AM 27.8171 111.0525 71° East  Level Estimated
Sun 10:05:00 AM 27.8530 111.1730 71° East  Level Estimated
Sun 10:06:00 AM 27.8888 111.2936 71° East  Level Estimated
Sun 10:07:00 AM 27.9244 111.4143 71° East  Level Estimated
Sun 10:08:00 AM 27.9600 111.5351 72° East  Level Estimated
Sun 10:09:00 AM 27.9954 111.6560 72° East  Level Estimated
Sun 10:10:00 AM 28.0308 111.7769 72° East  Level Estimated
Sun 10:11:00 AM 28.0660 111.8979 72° East  Level Estimated
Sun 10:12:00 AM 28.1012 112.0190 72° East  Level Estimated
Sun 10:13:00 AM 28.1362 112.1402 72° East  Level Estimated
Sun 10:14:00 AM 28.1711 112.2615 72° East  Level Estimated
Sun 10:15:00 AM 28.2059 112.3828 72° East  Level Estimated
Sun 10:16:00 AM 28.2406 112.5042 72° East  Level Estimated
Sun 10:17:00 AM 28.2752 112.6257 72° East  Level Estimated
Sun 10:18:00 AM 28.3097 112.7473 72° East  Level Estimated
Sun 10:19:00 AM 28.3441 112.8690 72° East  Level Estimated
Sun 10:20:00 AM 28.3784 112.9907 72° East  Level Estimated
Sun 10:21:00 AM 28.4125 113.1125 72° East  Level Estimated
Sun 10:22:00 AM 28.4466 113.2344 72° East  Level Estimated
Sun 10:23:00 AM 28.4806 113.3564 72° East  Level Estimated
Sun 10:24:00 AM 28.5144 113.4784 72° East  Level Estimated
Sun 10:25:00 AM 28.5481 113.6005 73° East  Level Estimated
Sun 10:26:00 AM 28.5817 113.7227 73° East  Level Estimated
Sun 10:27:00 AM 28.6152 113.8450 73° East  Level Estimated
Sun 10:28:00 AM 28.6486 113.9674 73° East  Level Estimated
Sun 10:29:00 AM 28.6819 114.0898 73° East  Level Estimated
Sun 10:30:00 AM 28.7151 114.2123 73° East  Level Estimated
Sun 10:31:00 AM 28.7482 114.3349 73° East  Level Estimated
Sun 10:32:00 AM 28.7812 114.4576 73° East  Level Estimated
Sun 10:33:00 AM 28.8140 114.5803 73° East  Level Estimated
Sun 10:34:00 AM 28.8467 114.7031 73° East  Level Estimated
Sun 10:35:00 AM 28.8794 114.8260 73° East  Level Estimated
Sun 10:36:00 AM 28.9119 114.9490 73° East  Level Estimated
Sun 10:37:00 AM 28.9443 115.0721 73° East  Level Estimated
Sun 10:38:00 AM 28.9766 115.1952 73° East  Level Estimated
Sun 10:39:00 AM 29.0088 115.3184 73° East  Level Estimated
Sun 10:40:00 AM 29.0408 115.4417 73° East  Level Estimated
Sun 10:41:00 AM 29.0728 115.5651 73° East  Level Estimated
Sun 10:42:00 AM 29.1046 115.6885 74° East  Level Estimated
Sun 10:43:00 AM 29.1364 115.8120 74° East  Level Estimated
Sun 10:44:00 AM 29.1680 115.9356 74° East  Level Estimated
Sun 10:45:00 AM 29.1995 116.0593 74° East  Level Estimated
Sun 10:46:00 AM 29.2309 116.1830 74° East  Level Estimated
Sun 10:47:00 AM 29.2622 116.3068 74° East  Level Estimated
Sun 10:48:00 AM 29.2933 116.4307 74° East  Level Estimated
Sun 10:49:00 AM 29.3244 116.5547 74° East  Level Estimated
Sun 10:50:00 AM 29.3553 116.6788 74° East  Level Estimated
Sun 10:51:00 AM 29.3861 116.8029 74° East  Level Estimated
Sun 10:52:00 AM 29.4168 116.9271 74° East  Level Estimated
Sun 10:53:00 AM 29.4474 117.0514 74° East  Level Estimated
Sun 10:54:00 AM 29.4779 117.1757 74° East  Level Estimated
Sun 10:55:00 AM 29.5082 117.3001 74° East  Level Estimated
Sun 10:56:00 AM 29.5385 117.4246 74° East  Level Estimated
Sun 10:57:00 AM 29.5686 117.5492 74° East  Level Estimated
Sun 10:58:00 AM 29.5986 117.6738 74° East  Level Estimated
Sun 10:59:00 AM 29.6285 117.7985 75° East  Level Estimated
Sun 11:00:00 AM 29.6583 117.9233 75° East  Level Estimated
Sun 11:01:00 AM 29.6879 118.0482 75° East  Level Estimated
Sun 11:02:00 AM 29.7175 118.1731 75° East  Level Estimated
Sun 11:03:00 AM 29.7469 118.2981 75° East  Level Estimated
Sun 11:04:00 AM 29.7762 118.4232 75° East  Level Estimated
Sun 11:05:00 AM 29.8054 118.5484 75° East  Level Estimated
Sun 11:06:00 AM 29.8345 118.6736 75° East  Level Estimated
Sun 11:07:00 AM 29.8634 118.7989 75° East  Level Estimated
Sun 11:08:00 AM 29.8922 118.9243 75° East  Level Estimated
Sun 11:09:00 AM 29.9209 119.0497 75° East  Level Estimated
Sun 11:10:00 AM 29.9496 119.1753 75° East  Level Estimated

Login

Don't have an account? Register now (free) for customized features, flight alerts, and more!